sensor_id;sensor_type;location;lat;lon;timestamp;pressure;altitude;pressure_sealevel;temperature;humidity
49311;BME280;35177;45.900;5.946;2023-09-07T00:00:19;97856.84;;;17.23;87.45
49311;BME280;35177;45.900;5.946;2023-09-07T00:02:45;97848.13;;;17.21;89.03
49311;BME280;35177;45.900;5.946;2023-09-07T00:05:11;97851.84;;;17.39;89.88
49311;BME280;35177;45.900;5.946;2023-09-07T00:07:36;97850.63;;;17.53;89.96
49311;BME280;35177;45.900;5.946;2023-09-07T00:10:02;97852.22;;;17.74;89.94
49311;BME280;35177;45.900;5.946;2023-09-07T00:12:28;97851.75;;;17.60;89.39
49311;BME280;35177;45.900;5.946;2023-09-07T00:14:54;97850.47;;;17.54;89.45
49311;BME280;35177;45.900;5.946;2023-09-07T00:17:20;97854.69;;;17.57;87.79
49311;BME280;35177;45.900;5.946;2023-09-07T00:19:46;97849.84;;;17.31;88.23
49311;BME280;35177;45.900;5.946;2023-09-07T00:22:14;97859.00;;;17.38;89.48
49311;BME280;35177;45.900;5.946;2023-09-07T00:24:40;97850.31;;;17.06;87.28
49311;BME280;35177;45.900;5.946;2023-09-07T00:27:06;97850.53;;;16.84;87.73
49311;BME280;35177;45.900;5.946;2023-09-07T00:29:34;97848.97;;;16.91;88.02
49311;BME280;35177;45.900;5.946;2023-09-07T00:31:59;97850.53;;;16.94;87.73
49311;BME280;35177;45.900;5.946;2023-09-07T00:34:25;97850.78;;;17.11;86.66
49311;BME280;35177;45.900;5.946;2023-09-07T00:36:50;97854.22;;;16.93;87.94
49311;BME280;35177;45.900;5.946;2023-09-07T00:39:15;97846.75;;;16.96;87.44
49311;BME280;35177;45.900;5.946;2023-09-07T00:41:41;97848.56;;;16.86;86.51
49311;BME280;35177;45.900;5.946;2023-09-07T00:44:06;97852.19;;;16.85;87.98
49311;BME280;35177;45.900;5.946;2023-09-07T00:46:32;97853.34;;;16.92;88.21
49311;BME280;35177;45.900;5.946;2023-09-07T00:48:57;97846.84;;;16.85;89.36
49311;BME280;35177;45.900;5.946;2023-09-07T00:51:23;97847.56;;;16.87;89.79
49311;BME280;35177;45.900;5.946;2023-09-07T00:53:49;97852.28;;;16.74;91.54
49311;BME280;35177;45.900;5.946;2023-09-07T00:56:15;97853.09;;;16.95;92.05
49311;BME280;35177;45.900;5.946;2023-09-07T00:58:42;97858.59;;;16.73;91.65
49311;BME280;35177;45.900;5.946;2023-09-07T01:01:08;97860.06;;;16.87;91.58
49311;BME280;35177;45.900;5.946;2023-09-07T01:03:33;97859.16;;;16.97;91.36
49311;BME280;35177;45.900;5.946;2023-09-07T01:06:06;97861.63;;;16.89;89.33
49311;BME280;35177;45.900;5.946;2023-09-07T01:08:35;97859.38;;;16.85;88.51
49311;BME280;35177;45.900;5.946;2023-09-07T01:11:13;97863.78;;;16.95;87.32
49311;BME280;35177;45.900;5.946;2023-09-07T01:13:39;97861.72;;;17.08;87.03
49311;BME280;35177;45.900;5.946;2023-09-07T01:16:04;97863.94;;;16.73;87.43
49311;BME280;35177;45.900;5.946;2023-09-07T01:18:30;97857.44;;;16.66;88.98
49311;BME280;35177;45.900;5.946;2023-09-07T01:20:57;97859.28;;;16.65;89.20
49311;BME280;35177;45.900;5.946;2023-09-07T01:23:24;97856.72;;;16.64;87.73
49311;BME280;35177;45.900;5.946;2023-09-07T01:25:49;97857.44;;;16.45;90.26
49311;BME280;35177;45.900;5.946;2023-09-07T01:28:16;97853.50;;;16.60;89.41
49311;BME280;35177;45.900;5.946;2023-09-07T01:30:41;97858.59;;;16.73;90.30
49311;BME280;35177;45.900;5.946;2023-09-07T01:33:07;97858.66;;;16.83;88.84
49311;BME280;35177;45.900;5.946;2023-09-07T01:35:34;97855.06;;;16.93;87.69
49311;BME280;35177;45.900;5.946;2023-09-07T01:38:00;97858.34;;;16.76;86.66
49311;BME280;35177;45.900;5.946;2023-09-07T01:40:26;97854.34;;;16.61;87.74
49311;BME280;35177;45.900;5.946;2023-09-07T01:42:51;97857.81;;;16.41;88.34
49311;BME280;35177;45.900;5.946;2023-09-07T01:45:17;97856.00;;;16.41;89.69
49311;BME280;35177;45.900;5.946;2023-09-07T01:47:42;97852.38;;;16.63;90.69
49311;BME280;35177;45.900;5.946;2023-09-07T01:50:08;97854.50;;;16.48;90.10
49311;BME280;35177;45.900;5.946;2023-09-07T01:52:33;97855.88;;;16.43;90.12
49311;BME280;35177;45.900;5.946;2023-09-07T01:54:59;97850.66;;;16.41;90.81
49311;BME280;35177;45.900;5.946;2023-09-07T01:57:24;97861.59;;;16.38;89.25
49311;BME280;35177;45.900;5.946;2023-09-07T01:59:50;97851.16;;;16.15;89.89
49311;BME280;35177;45.900;5.946;2023-09-07T02:02:15;97854.38;;;16.09;90.33
49311;BME280;35177;45.900;5.946;2023-09-07T02:04:41;97856.59;;;16.24;89.72
49311;BME280;35177;45.900;5.946;2023-09-07T02:07:08;97854.44;;;15.97;88.35
49311;BME280;35177;45.900;5.946;2023-09-07T02:09:34;97858.00;;;16.08;88.60
49311;BME280;35177;45.900;5.946;2023-09-07T02:11:59;97863.81;;;16.13;87.46
49311;BME280;35177;45.900;5.946;2023-09-07T02:14:24;97851.06;;;15.84;89.36
49311;BME280;35177;45.900;5.946;2023-09-07T02:16:50;97859.84;;;16.07;88.38
49311;BME280;35177;45.900;5.946;2023-09-07T02:19:15;97863.78;;;16.24;87.96
49311;BME280;35177;45.900;5.946;2023-09-07T02:21:41;97857.19;;;16.28;88.73
49311;BME280;35177;45.900;5.946;2023-09-07T02:24:06;97863.41;;;16.17;90.92
49311;BME280;35177;45.900;5.946;2023-09-07T02:26:32;97856.09;;;15.98;91.95
49311;BME280;35177;45.900;5.946;2023-09-07T02:28:57;97854.13;;;16.12;89.75
49311;BME280;35177;45.900;5.946;2023-09-07T02:31:23;97858.69;;;16.21;88.32
49311;BME280;35177;45.900;5.946;2023-09-07T02:33:48;97855.34;;;16.08;88.11
49311;BME280;35177;45.900;5.946;2023-09-07T02:36:14;97860.09;;;16.04;89.11
49311;BME280;35177;45.900;5.946;2023-09-07T02:38:39;97867.53;;;16.01;90.00
49311;BME280;35177;45.900;5.946;2023-09-07T02:41:05;97862.13;;;15.80;90.29
49311;BME280;35177;45.900;5.946;2023-09-07T02:43:31;97868.56;;;15.77;91.00
49311;BME280;35177;45.900;5.946;2023-09-07T02:45:56;97871.97;;;15.79;90.51
49311;BME280;35177;45.900;5.946;2023-09-07T02:48:22;97873.06;;;15.77;93.04
49311;BME280;35177;45.900;5.946;2023-09-07T02:50:48;97868.84;;;15.74;91.67
49311;BME280;35177;45.900;5.946;2023-09-07T02:53:15;97869.66;;;15.86;90.13
49311;BME280;35177;45.900;5.946;2023-09-07T02:55:41;97864.41;;;15.95;91.64
49311;BME280;35177;45.900;5.946;2023-09-07T02:58:06;97867.84;;;15.75;89.82
49311;BME280;35177;45.900;5.946;2023-09-07T03:00:32;97866.38;;;15.82;89.33
49311;BME280;35177;45.900;5.946;2023-09-07T03:02:57;97862.97;;;15.80;89.19
49311;BME280;35177;45.900;5.946;2023-09-07T03:05:27;97876.03;;;15.63;91.64
49311;BME280;35177;45.900;5.946;2023-09-07T03:07:53;97866.25;;;15.84;91.45
49311;BME280;35177;45.900;5.946;2023-09-07T03:10:19;97863.78;;;15.92;90.22
49311;BME280;35177;45.900;5.946;2023-09-07T03:12:44;97860.78;;;15.85;90.44
49311;BME280;35177;45.900;5.946;2023-09-07T03:15:09;97865.44;;;16.04;92.56
49311;BME280;35177;45.900;5.946;2023-09-07T03:17:35;97867.34;;;16.13;90.35
49311;BME280;35177;45.900;5.946;2023-09-07T03:20:01;97858.47;;;16.13;88.39
49311;BME280;35177;45.900;5.946;2023-09-07T03:22:33;97859.25;;;16.04;87.81
49311;BME280;35177;45.900;5.946;2023-09-07T03:24:58;97860.69;;;16.08;88.97
49311;BME280;35177;45.900;5.946;2023-09-07T03:27:24;97850.59;;;15.90;88.33
49311;BME280;35177;45.900;5.946;2023-09-07T03:29:49;97850.09;;;15.85;88.65
49311;BME280;35177;45.900;5.946;2023-09-07T03:32:16;97860.50;;;15.57;88.42
49311;BME280;35177;45.900;5.946;2023-09-07T03:34:42;97860.59;;;15.66;90.21
49311;BME280;35177;45.900;5.946;2023-09-07T03:37:07;97857.88;;;15.77;91.42
49311;BME280;35177;45.900;5.946;2023-09-07T03:39:36;97861.03;;;15.51;89.66
49311;BME280;35177;45.900;5.946;2023-09-07T03:42:02;97856.06;;;15.35;89.78
49311;BME280;35177;45.900;5.946;2023-09-07T03:44:27;97862.47;;;15.55;89.42
49311;BME280;35177;45.900;5.946;2023-09-07T03:46:53;97863.56;;;15.41;90.13
49311;BME280;35177;45.900;5.946;2023-09-07T03:49:18;97859.69;;;15.45;88.58
49311;BME280;35177;45.900;5.946;2023-09-07T03:51:43;97861.41;;;15.35;88.03
49311;BME280;35177;45.900;5.946;2023-09-07T03:54:09;97863.41;;;15.43;89.10
49311;BME280;35177;45.900;5.946;2023-09-07T03:56:34;97859.38;;;15.16;90.01
49311;BME280;35177;45.900;5.946;2023-09-07T03:59:00;97859.69;;;15.34;90.10
49311;BME280;35177;45.900;5.946;2023-09-07T04:01:25;97857.50;;;15.50;90.82
49311;BME280;35177;45.900;5.946;2023-09-07T04:03:50;97856.47;;;15.73;88.99
49311;BME280;35177;45.900;5.946;2023-09-07T04:06:16;97857.66;;;15.80;86.97
49311;BME280;35177;45.900;5.946;2023-09-07T04:08:42;97859.94;;;15.53;87.80
49311;BME280;35177;45.900;5.946;2023-09-07T04:11:07;97860.94;;;15.73;87.80
49311;BME280;35177;45.900;5.946;2023-09-07T04:13:33;97862.34;;;15.45;89.09
49311;BME280;35177;45.900;5.946;2023-09-07T04:15:58;97859.94;;;15.42;88.58
49311;BME280;35177;45.900;5.946;2023-09-07T04:18:24;97862.50;;;15.32;88.71
49311;BME280;35177;45.900;5.946;2023-09-07T04:20:49;97858.00;;;15.22;88.43
49311;BME280;35177;45.900;5.946;2023-09-07T04:23:15;97866.88;;;15.11;88.36
49311;BME280;35177;45.900;5.946;2023-09-07T04:25:41;97859.47;;;15.26;89.57
49311;BME280;35177;45.900;5.946;2023-09-07T04:28:06;97860.16;;;15.39;87.37
49311;BME280;35177;45.900;5.946;2023-09-07T04:30:39;97851.22;;;15.40;89.92
49311;BME280;35177;45.900;5.946;2023-09-07T04:33:04;97855.88;;;15.05;88.80
49311;BME280;35177;45.900;5.946;2023-09-07T04:35:30;97858.75;;;15.13;90.90
49311;BME280;35177;45.900;5.946;2023-09-07T04:37:56;97865.91;;;14.90;90.91
49311;BME280;35177;45.900;5.946;2023-09-07T04:40:22;97875.25;;;14.96;91.85
49311;BME280;35177;45.900;5.946;2023-09-07T04:42:48;97871.72;;;15.06;90.65
49311;BME280;35177;45.900;5.946;2023-09-07T04:45:13;97867.38;;;15.16;89.37
49311;BME280;35177;45.900;5.946;2023-09-07T04:47:39;97870.03;;;15.16;89.49
49311;BME280;35177;45.900;5.946;2023-09-07T04:50:05;97872.06;;;15.35;89.81
49311;BME280;35177;45.900;5.946;2023-09-07T04:52:31;97875.34;;;15.27;89.91
49311;BME280;35177;45.900;5.946;2023-09-07T04:54:56;97866.50;;;15.27;91.52
49311;BME280;35177;45.900;5.946;2023-09-07T04:57:22;97873.63;;;15.26;90.68
49311;BME280;35177;45.900;5.946;2023-09-07T04:59:47;97873.78;;;15.14;90.76
49311;BME280;35177;45.900;5.946;2023-09-07T05:02:13;97879.22;;;15.01;91.37
49311;BME280;35177;45.900;5.946;2023-09-07T05:04:38;97874.25;;;15.08;90.31
49311;BME280;35177;45.900;5.946;2023-09-07T05:07:04;97882.63;;;15.25;88.28
49311;BME280;35177;45.900;5.946;2023-09-07T05:09:30;97884.91;;;15.08;88.99
49311;BME280;35177;45.900;5.946;2023-09-07T05:11:56;97893.16;;;15.16;90.21
49311;BME280;35177;45.900;5.946;2023-09-07T05:14:23;97892.19;;;15.06;88.81
49311;BME280;35177;45.900;5.946;2023-09-07T05:16:49;97890.03;;;14.89;88.59
49311;BME280;35177;45.900;5.946;2023-09-07T05:19:15;97895.00;;;15.04;87.62
49311;BME280;35177;45.900;5.946;2023-09-07T05:21:40;97896.31;;;14.77;88.59
49311;BME280;35177;45.900;5.946;2023-09-07T05:24:06;97898.97;;;14.88;90.08
49311;BME280;35177;45.900;5.946;2023-09-07T05:26:31;97902.13;;;15.04;90.11
49311;BME280;35177;45.900;5.946;2023-09-07T05:28:57;97899.94;;;15.53;89.03
49311;BME280;35177;45.900;5.946;2023-09-07T05:31:22;97903.38;;;15.76;87.23
49311;BME280;35177;45.900;5.946;2023-09-07T05:33:47;97901.78;;;15.84;87.89
49311;BME280;35177;45.900;5.946;2023-09-07T05:36:13;97901.41;;;16.21;86.51
49311;BME280;35177;45.900;5.946;2023-09-07T05:38:38;97902.78;;;16.36;86.51
49311;BME280;35177;45.900;5.946;2023-09-07T05:41:04;97910.19;;;16.64;86.32
49311;BME280;35177;45.900;5.946;2023-09-07T05:43:29;97913.22;;;16.39;87.26
49311;BME280;35177;45.900;5.946;2023-09-07T05:45:55;97914.22;;;16.27;88.85
49311;BME280;35177;45.900;5.946;2023-09-07T05:48:20;97919.50;;;16.70;87.23
49311;BME280;35177;45.900;5.946;2023-09-07T05:50:46;97916.97;;;16.98;87.31
49311;BME280;35177;45.900;5.946;2023-09-07T05:53:11;97918.78;;;16.88;88.90
49311;BME280;35177;45.900;5.946;2023-09-07T05:55:37;97918.94;;;16.96;89.73
49311;BME280;35177;45.900;5.946;2023-09-07T05:58:07;97920.19;;;17.22;88.70
49311;BME280;35177;45.900;5.946;2023-09-07T06:00:34;97925.34;;;17.05;90.62
49311;BME280;35177;45.900;5.946;2023-09-07T06:02:59;97920.50;;;17.29;89.25
49311;BME280;35177;45.900;5.946;2023-09-07T06:05:25;97932.25;;;17.38;88.73
49311;BME280;35177;45.900;5.946;2023-09-07T06:07:50;97924.72;;;17.31;89.25
49311;BME280;35177;45.900;5.946;2023-09-07T06:10:16;97921.50;;;17.28;89.39
49311;BME280;35177;45.900;5.946;2023-09-07T06:12:42;97911.53;;;17.40;89.17
49311;BME280;35177;45.900;5.946;2023-09-07T06:15:08;97920.53;;;17.38;88.22
49311;BME280;35177;45.900;5.946;2023-09-07T06:17:34;97930.75;;;17.54;87.76
49311;BME280;35177;45.900;5.946;2023-09-07T06:19:59;97921.16;;;17.52;88.02
49311;BME280;35177;45.900;5.946;2023-09-07T06:22:25;97931.06;;;17.61;87.44
49311;BME280;35177;45.900;5.946;2023-09-07T06:24:52;97928.53;;;17.59;88.03
49311;BME280;35177;45.900;5.946;2023-09-07T06:27:18;97939.09;;;17.61;88.28
49311;BME280;35177;45.900;5.946;2023-09-07T06:29:43;97934.50;;;17.91;86.89
49311;BME280;35177;45.900;5.946;2023-09-07T06:32:08;97928.63;;;18.17;85.07
49311;BME280;35177;45.900;5.946;2023-09-07T06:34:34;97934.53;;;18.11;85.33
49311;BME280;35177;45.900;5.946;2023-09-07T06:36:59;97936.53;;;18.18;85.61
49311;BME280;35177;45.900;5.946;2023-09-07T06:39:25;97933.97;;;18.26;85.70
49311;BME280;35177;45.900;5.946;2023-09-07T06:41:50;97933.00;;;18.37;85.29
49311;BME280;35177;45.900;5.946;2023-09-07T06:44:16;97933.44;;;18.32;84.64
49311;BME280;35177;45.900;5.946;2023-09-07T06:46:41;97937.06;;;18.31;85.98
49311;BME280;35177;45.900;5.946;2023-09-07T06:49:06;97935.69;;;18.27;86.33
49311;BME280;35177;45.900;5.946;2023-09-07T06:51:33;97940.47;;;18.14;87.48
49311;BME280;35177;45.900;5.946;2023-09-07T06:53:58;97938.41;;;18.46;84.53
49311;BME280;35177;45.900;5.946;2023-09-07T06:56:24;97939.09;;;18.58;85.48
49311;BME280;35177;45.900;5.946;2023-09-07T06:58:51;97939.50;;;18.63;82.58
49311;BME280;35177;45.900;5.946;2023-09-07T07:01:17;97930.88;;;18.69;82.72
49311;BME280;35177;45.900;5.946;2023-09-07T07:03:42;97941.44;;;18.80;86.32
49311;BME280;35177;45.900;5.946;2023-09-07T07:06:08;97936.47;;;19.04;83.35
49311;BME280;35177;45.900;5.946;2023-09-07T07:08:33;97936.00;;;19.18;83.45
49311;BME280;35177;45.900;5.946;2023-09-07T07:10:58;97944.63;;;19.03;85.53
49311;BME280;35177;45.900;5.946;2023-09-07T07:13:25;97944.38;;;18.96;83.16
49311;BME280;35177;45.900;5.946;2023-09-07T07:15:51;97948.16;;;19.13;85.17
49311;BME280;35177;45.900;5.946;2023-09-07T07:18:16;97948.44;;;19.10;85.68
49311;BME280;35177;45.900;5.946;2023-09-07T07:20:43;97947.72;;;19.08;83.50
49311;BME280;35177;45.900;5.946;2023-09-07T07:23:09;97948.00;;;19.14;82.30
49311;BME280;35177;45.900;5.946;2023-09-07T07:25:35;97953.31;;;19.24;84.38
49311;BME280;35177;45.900;5.946;2023-09-07T07:28:01;97954.16;;;19.34;83.24
49311;BME280;35177;45.900;5.946;2023-09-07T07:30:29;97949.91;;;19.31;80.60
49311;BME280;35177;45.900;5.946;2023-09-07T07:32:55;97954.09;;;19.53;80.28
49311;BME280;35177;45.900;5.946;2023-09-07T07:35:21;97954.34;;;19.60;79.82
49311;BME280;35177;45.900;5.946;2023-09-07T07:37:46;97950.78;;;19.69;81.93
49311;BME280;35177;45.900;5.946;2023-09-07T07:40:12;97947.94;;;19.70;79.41
49311;BME280;35177;45.900;5.946;2023-09-07T07:42:37;97946.59;;;19.84;79.38
49311;BME280;35177;45.900;5.946;2023-09-07T07:45:03;97945.94;;;19.99;81.46
49311;BME280;35177;45.900;5.946;2023-09-07T07:47:28;97954.75;;;20.09;82.11
49311;BME280;35177;45.900;5.946;2023-09-07T07:49:54;97951.47;;;20.16;79.89
49311;BME280;35177;45.900;5.946;2023-09-07T07:52:19;97944.34;;;20.06;80.36
49311;BME280;35177;45.900;5.946;2023-09-07T07:54:45;97950.56;;;20.07;82.68
49311;BME280;35177;45.900;5.946;2023-09-07T07:57:10;97948.59;;;20.27;82.36
49311;BME280;35177;45.900;5.946;2023-09-07T07:59:36;97941.31;;;20.09;81.32
49311;BME280;35177;45.900;5.946;2023-09-07T08:02:01;97946.06;;;20.25;81.95
49311;BME280;35177;45.900;5.946;2023-09-07T08:04:27;97940.69;;;20.43;82.42
49311;BME280;35177;45.900;5.946;2023-09-07T08:06:53;97945.16;;;20.34;82.72
49311;BME280;35177;45.900;5.946;2023-09-07T08:09:23;97941.31;;;20.37;83.26
49311;BME280;35177;45.900;5.946;2023-09-07T08:11:48;97936.00;;;20.45;83.32
49311;BME280;35177;45.900;5.946;2023-09-07T08:14:14;97942.91;;;20.65;82.61
49311;BME280;35177;45.900;5.946;2023-09-07T08:16:39;97937.88;;;20.70;80.58
49311;BME280;35177;45.900;5.946;2023-09-07T08:19:05;97938.06;;;20.68;79.46
49311;BME280;35177;45.900;5.946;2023-09-07T08:21:30;97933.78;;;20.58;81.58
49311;BME280;35177;45.900;5.946;2023-09-07T08:23:56;97933.09;;;20.56;80.48
49311;BME280;35177;45.900;5.946;2023-09-07T08:26:21;97939.97;;;20.58;81.21
49311;BME280;35177;45.900;5.946;2023-09-07T08:28:47;97937.97;;;20.78;79.63
49311;BME280;35177;45.900;5.946;2023-09-07T08:31:12;97945.78;;;20.89;79.15
49311;BME280;35177;45.900;5.946;2023-09-07T08:33:39;97939.16;;;21.27;78.34
49311;BME280;35177;45.900;5.946;2023-09-07T08:36:05;97944.97;;;21.14;79.13
49311;BME280;35177;45.900;5.946;2023-09-07T08:38:31;97938.28;;;21.18;78.27
49311;BME280;35177;45.900;5.946;2023-09-07T08:41:01;97948.22;;;21.18;76.42
49311;BME280;35177;45.900;5.946;2023-09-07T08:43:33;97939.50;;;21.58;74.93
49311;BME280;35177;45.900;5.946;2023-09-07T08:46:06;97939.47;;;21.50;73.29
49311;BME280;35177;45.900;5.946;2023-09-07T08:48:32;97940.03;;;21.27;75.29
49311;BME280;35177;45.900;5.946;2023-09-07T08:50:58;97940.72;;;21.37;76.35
49311;BME280;35177;45.900;5.946;2023-09-07T08:53:24;97944.91;;;21.58;77.60
49311;BME280;35177;45.900;5.946;2023-09-07T08:55:50;97942.94;;;21.76;75.63
49311;BME280;35177;45.900;5.946;2023-09-07T08:58:15;97941.97;;;21.77;75.06
49311;BME280;35177;45.900;5.946;2023-09-07T09:00:42;97942.03;;;21.93;74.49
49311;BME280;35177;45.900;5.946;2023-09-07T09:03:09;97936.34;;;22.12;73.65
49311;BME280;35177;45.900;5.946;2023-09-07T09:05:36;97937.00;;;22.06;73.55
49311;BME280;35177;45.900;5.946;2023-09-07T09:08:04;97934.00;;;22.17;74.52
49311;BME280;35177;45.900;5.946;2023-09-07T09:10:30;97933.38;;;22.47;72.59
49311;BME280;35177;45.900;5.946;2023-09-07T09:12:55;97932.75;;;22.61;70.45
49311;BME280;35177;45.900;5.946;2023-09-07T09:15:22;97934.72;;;22.27;71.93
49311;BME280;35177;45.900;5.946;2023-09-07T09:17:48;97937.75;;;22.32;73.04
49311;BME280;35177;45.900;5.946;2023-09-07T09:20:22;97929.66;;;23.13;68.93
49311;BME280;35177;45.900;5.946;2023-09-07T09:22:50;97927.16;;;23.03;70.39
49311;BME280;35177;45.900;5.946;2023-09-07T09:25:16;97927.81;;;23.13;69.72
49311;BME280;35177;45.900;5.946;2023-09-07T09:27:41;97918.22;;;22.95;68.91
49311;BME280;35177;45.900;5.946;2023-09-07T09:30:07;97926.31;;;23.03;69.67
49311;BME280;35177;45.900;5.946;2023-09-07T09:32:33;97922.63;;;22.88;69.54
49311;BME280;35177;45.900;5.946;2023-09-07T09:34:58;97918.38;;;22.93;71.49
49311;BME280;35177;45.900;5.946;2023-09-07T09:37:26;97919.69;;;23.21;70.41
49311;BME280;35177;45.900;5.946;2023-09-07T09:39:53;97915.09;;;23.85;67.37
49311;BME280;35177;45.900;5.946;2023-09-07T09:42:20;97913.59;;;23.82;68.06
49311;BME280;35177;45.900;5.946;2023-09-07T09:44:49;97913.16;;;24.01;66.73
49311;BME280;35177;45.900;5.946;2023-09-07T09:47:16;97909.13;;;24.28;64.06
49311;BME280;35177;45.900;5.946;2023-09-07T09:49:43;97912.38;;;24.24;65.37
49311;BME280;35177;45.900;5.946;2023-09-07T09:52:08;97909.94;;;24.37;63.51
49311;BME280;35177;45.900;5.946;2023-09-07T09:54:38;97909.69;;;24.69;64.00
49311;BME280;35177;45.900;5.946;2023-09-07T09:57:03;97916.84;;;24.84;62.01
49311;BME280;35177;45.900;5.946;2023-09-07T09:59:29;97907.88;;;24.84;63.00
49311;BME280;35177;45.900;5.946;2023-09-07T10:01:55;97903.91;;;25.09;61.82
49311;BME280;35177;45.900;5.946;2023-09-07T10:04:22;97893.47;;;25.06;61.45
49311;BME280;35177;45.900;5.946;2023-09-07T10:07:00;97900.88;;;25.56;61.29
49311;BME280;35177;45.900;5.946;2023-09-07T10:09:30;97892.66;;;25.79;60.34
49311;BME280;35177;45.900;5.946;2023-09-07T10:11:58;97890.59;;;25.66;60.61
49311;BME280;35177;45.900;5.946;2023-09-07T10:14:25;97883.84;;;25.77;59.44
49311;BME280;35177;45.900;5.946;2023-09-07T10:16:54;97881.38;;;25.96;59.11
49311;BME280;35177;45.900;5.946;2023-09-07T10:19:25;97887.94;;;26.02;57.79
49311;BME280;35177;45.900;5.946;2023-09-07T10:21:55;97880.66;;;26.24;57.02
49311;BME280;35177;45.900;5.946;2023-09-07T10:24:32;97888.47;;;26.12;55.77
49311;BME280;35177;45.900;5.946;2023-09-07T10:27:06;97880.03;;;26.22;55.67
49311;BME280;35177;45.900;5.946;2023-09-07T10:29:59;97879.34;;;26.34;54.43
49311;BME280;35177;45.900;5.946;2023-09-07T10:32:25;97875.56;;;26.35;55.05
49311;BME280;35177;45.900;5.946;2023-09-07T10:34:50;97870.41;;;26.61;54.84
49311;BME280;35177;45.900;5.946;2023-09-07T10:37:15;97874.41;;;26.86;55.43
49311;BME280;35177;45.900;5.946;2023-09-07T10:39:42;97869.94;;;26.79;55.47
49311;BME280;35177;45.900;5.946;2023-09-07T10:42:19;97866.31;;;26.72;53.72
49311;BME280;35177;45.900;5.946;2023-09-07T10:44:45;97857.97;;;26.95;53.98
49311;BME280;35177;45.900;5.946;2023-09-07T10:47:10;97855.94;;;27.03;52.98
49311;BME280;35177;45.900;5.946;2023-09-07T10:49:37;97854.66;;;27.27;54.68
49311;BME280;35177;45.900;5.946;2023-09-07T10:52:03;97859.34;;;27.39;50.46
49311;BME280;35177;45.900;5.946;2023-09-07T10:54:29;97842.06;;;27.60;48.78
49311;BME280;35177;45.900;5.946;2023-09-07T10:56:54;97842.34;;;27.72;49.94
49311;BME280;35177;45.900;5.946;2023-09-07T10:59:23;97845.31;;;27.83;49.96
49311;BME280;35177;45.900;5.946;2023-09-07T11:01:48;97846.59;;;27.81;49.54
49311;BME280;35177;45.900;5.946;2023-09-07T11:04:14;97840.94;;;27.82;52.00
49311;BME280;35177;45.900;5.946;2023-09-07T11:06:40;97842.84;;;27.95;49.34
49311;BME280;35177;45.900;5.946;2023-09-07T11:09:08;97833.44;;;27.97;48.51
49311;BME280;35177;45.900;5.946;2023-09-07T11:11:35;97835.06;;;28.46;48.20
49311;BME280;35177;45.900;5.946;2023-09-07T11:14:05;97830.00;;;28.30;45.71
49311;BME280;35177;45.900;5.946;2023-09-07T11:16:33;97826.25;;;28.50;45.27
49311;BME280;35177;45.900;5.946;2023-09-07T11:19:03;97824.56;;;28.30;46.21
49311;BME280;35177;45.900;5.946;2023-09-07T11:21:30;97824.00;;;28.73;45.57
49311;BME280;35177;45.900;5.946;2023-09-07T11:23:57;97822.72;;;28.63;39.29
49311;BME280;35177;45.900;5.946;2023-09-07T11:26:22;97814.94;;;28.92;38.42
49311;BME280;35177;45.900;5.946;2023-09-07T11:28:48;97810.34;;;28.93;33.06
49311;BME280;35177;45.900;5.946;2023-09-07T11:31:18;97805.44;;;29.34;32.67
49311;BME280;35177;45.900;5.946;2023-09-07T11:33:46;97819.84;;;29.61;32.19
49311;BME280;35177;45.900;5.946;2023-09-07T11:36:12;97808.16;;;29.34;30.91
49311;BME280;35177;45.900;5.946;2023-09-07T11:38:37;97816.81;;;29.31;29.89
49311;BME280;35177;45.900;5.946;2023-09-07T11:41:03;97809.81;;;29.48;31.46
49311;BME280;35177;45.900;5.946;2023-09-07T11:43:29;97802.06;;;29.45;33.12
49311;BME280;35177;45.900;5.946;2023-09-07T11:45:54;97807.88;;;29.55;32.54
49311;BME280;35177;45.900;5.946;2023-09-07T11:48:20;97810.06;;;29.40;32.24
49311;BME280;35177;45.900;5.946;2023-09-07T11:50:45;97815.81;;;29.77;33.79
49311;BME280;35177;45.900;5.946;2023-09-07T11:53:11;97809.81;;;29.48;33.97
49311;BME280;35177;45.900;5.946;2023-09-07T11:55:36;97807.91;;;29.49;34.55
49311;BME280;35177;45.900;5.946;2023-09-07T11:58:03;97811.41;;;29.69;35.26
49311;BME280;35177;45.900;5.946;2023-09-07T12:00:30;97805.31;;;29.80;35.48
49311;BME280;35177;45.900;5.946;2023-09-07T12:02:56;97810.72;;;29.23;34.63
49311;BME280;35177;45.900;5.946;2023-09-07T12:05:22;97802.88;;;29.52;33.76
49311;BME280;35177;45.900;5.946;2023-09-07T12:07:48;97807.34;;;29.40;33.31
49311;BME280;35177;45.900;5.946;2023-09-07T12:10:13;97808.28;;;29.66;33.35
49311;BME280;35177;45.900;5.946;2023-09-07T12:12:43;97790.97;;;29.40;34.87
49311;BME280;35177;45.900;5.946;2023-09-07T12:15:10;97795.19;;;29.36;38.94
49311;BME280;35177;45.900;5.946;2023-09-07T12:17:38;97788.03;;;29.42;37.38
49311;BME280;35177;45.900;5.946;2023-09-07T12:20:04;97792.06;;;29.26;37.88
49311;BME280;35177;45.900;5.946;2023-09-07T12:22:34;97794.31;;;29.42;37.99
49311;BME280;35177;45.900;5.946;2023-09-07T12:25:05;97793.53;;;29.29;37.15
49311;BME280;35177;45.900;5.946;2023-09-07T12:27:36;97785.53;;;29.27;40.29
49311;BME280;35177;45.900;5.946;2023-09-07T12:30:02;97791.75;;;29.54;36.08
49311;BME280;35177;45.900;5.946;2023-09-07T12:32:28;97786.03;;;29.69;36.24
49311;BME280;35177;45.900;5.946;2023-09-07T12:34:53;97780.56;;;29.69;36.56
49311;BME280;35177;45.900;5.946;2023-09-07T12:37:19;97783.34;;;29.62;35.95
49311;BME280;35177;45.900;5.946;2023-09-07T12:39:44;97789.72;;;29.94;38.00
49311;BME280;35177;45.900;5.946;2023-09-07T12:42:09;97776.81;;;29.63;36.05
49311;BME280;35177;45.900;5.946;2023-09-07T12:44:35;97779.56;;;29.56;37.77
49311;BME280;35177;45.900;5.946;2023-09-07T12:47:00;97775.91;;;29.82;36.28
49311;BME280;35177;45.900;5.946;2023-09-07T12:49:26;97777.94;;;29.93;36.71
49311;BME280;35177;45.900;5.946;2023-09-07T12:51:51;97771.13;;;29.78;36.82
49311;BME280;35177;45.900;5.946;2023-09-07T12:54:16;97768.06;;;29.99;36.25